createdAt,value
2018-12-16T00:00:45.331Z,22.03
2018-12-16T00:03:14.468Z,21.13
2018-12-16T00:05:43.593Z,22.60
2018-12-16T00:08:12.740Z,22.90
2018-12-16T00:10:41.922Z,23.33
2018-12-16T00:13:12.376Z,20.77
2018-12-16T00:15:41.549Z,22.07
2018-12-16T00:18:11.183Z,26.40
2018-12-16T00:20:41.932Z,23.27
2018-12-16T00:23:11.402Z,23.23
2018-12-16T00:25:40.991Z,23.87
2018-12-16T00:28:10.207Z,21.17
2018-12-16T00:30:39.738Z,25.97
2018-12-16T00:33:09.256Z,24.63
2018-12-16T00:35:39.591Z,22.70
2018-12-16T00:38:08.847Z,22.93
2018-12-16T00:40:38.796Z,21.83
2018-12-16T00:43:08.184Z,23.10
2018-12-16T00:45:37.208Z,24.03
2018-12-16T00:48:06.721Z,23.53
2018-12-16T00:50:35.779Z,18.70
2018-12-16T00:53:04.925Z,24.50
2018-12-16T00:55:34.066Z,24.60
2018-12-16T00:58:03.101Z,22.13
2018-12-16T01:00:32.209Z,22.67
2018-12-16T01:03:01.328Z,22.90
2018-12-16T01:05:30.571Z,23.83
2018-12-16T01:07:59.733Z,26.30
2018-12-16T01:10:29.028Z,25.80
2018-12-16T01:12:58.714Z,23.63
2018-12-16T01:15:28.356Z,24.60
2018-12-16T01:17:57.542Z,26.30
2018-12-16T01:20:26.715Z,23.07
2018-12-16T01:22:55.839Z,23.17
2018-12-16T01:25:25.182Z,26.37
2018-12-16T01:27:54.443Z,25.57
2018-12-16T01:30:23.901Z,21.27
2018-12-16T01:32:53.628Z,22.07
2018-12-16T01:35:22.710Z,20.83
2018-12-16T01:37:52.463Z,25.00
2018-12-16T01:40:21.595Z,24.00
2018-12-16T01:42:51.557Z,24.47
2018-12-16T01:45:21.301Z,22.90
2018-12-16T01:47:50.534Z,24.87
2018-12-16T01:50:19.971Z,25.27
2018-12-16T01:52:50.301Z,27.07
2018-12-16T01:55:19.716Z,22.63
2018-12-16T01:57:49.131Z,23.17
2018-12-16T02:00:18.256Z,24.63
2018-12-16T02:02:47.302Z,27.20
2018-12-16T02:05:16.944Z,22.07
2018-12-16T02:07:46.052Z,22.50
2018-12-16T02:10:15.252Z,22.87
2018-12-16T02:12:44.392Z,28.03
2018-12-16T02:15:13.860Z,23.50
2018-12-16T02:17:43.362Z,21.73
2018-12-16T02:20:13.235Z,26.57
2018-12-16T02:22:42.817Z,24.90
2018-12-16T02:25:12.406Z,21.27
2018-12-16T02:27:41.859Z,23.77
2018-12-16T02:30:15.277Z,26.97
2018-12-16T02:32:44.385Z,24.73
2018-12-16T02:35:13.539Z,24.83
2018-12-16T02:37:42.594Z,22.10
2018-12-16T02:40:11.753Z,24.13
2018-12-16T02:42:40.886Z,23.53
2018-12-16T02:45:10.079Z,26.20
2018-12-16T02:47:39.825Z,26.40
2018-12-16T02:50:09.273Z,23.93
2018-12-16T02:52:38.769Z,21.33
2018-12-16T02:55:08.072Z,25.40
2018-12-16T02:57:37.230Z,24.63
2018-12-16T03:00:07.343Z,23.83
2018-12-16T03:02:36.642Z,26.23
2018-12-16T03:05:06.362Z,22.37
2018-12-16T03:07:36.026Z,23.70
2018-12-16T03:10:05.922Z,21.37
2018-12-16T03:12:35.041Z,21.97
2018-12-16T03:15:04.313Z,23.30
2018-12-16T03:17:33.416Z,22.70
2018-12-16T03:20:03.240Z,20.70
2018-12-16T03:22:32.396Z,20.13
2018-12-16T03:25:01.522Z,25.73
2018-12-16T03:27:30.558Z,19.40
2018-12-16T03:30:00.297Z,23.30
2018-12-16T03:32:29.389Z,21.77
2018-12-16T03:34:58.566Z,20.50
2018-12-16T03:37:28.731Z,21.07
2018-12-16T03:40:00.752Z,22.40
2018-12-16T03:42:31.818Z,22.27
2018-12-16T03:45:00.984Z,21.30
2018-12-16T03:47:30.148Z,20.13
2018-12-16T03:49:59.579Z,19.80
2018-12-16T03:52:29.662Z,21.73
2018-12-16T03:54:58.816Z,22.57
2018-12-16T03:57:27.914Z,21.47
2018-12-16T03:59:57.341Z,21.00
2018-12-16T04:02:33.801Z,23.93
2018-12-16T04:05:03.156Z,16.60
2018-12-16T04:07:32.268Z,21.17
2018-12-16T04:10:01.413Z,23.77
2018-12-16T04:12:30.518Z,25.43
2018-12-16T04:14:59.707Z,23.73
2018-12-16T04:17:28.899Z,21.23
2018-12-16T04:19:58.005Z,24.13
2018-12-16T04:22:27.958Z,20.27
2018-12-16T04:24:57.053Z,20.23
2018-12-16T04:27:26.280Z,21.07
2018-12-16T04:29:55.960Z,22.83
2018-12-16T04:32:25.115Z,23.83
2018-12-16T04:34:54.288Z,21.67
2018-12-16T04:37:23.368Z,23.03
2018-12-16T04:39:52.451Z,20.90
2018-12-16T04:42:22.265Z,19.90
2018-12-16T04:44:51.418Z,19.57
2018-12-16T04:47:20.575Z,24.23
2018-12-16T04:49:49.672Z,24.00
2018-12-16T04:52:18.825Z,23.40
2018-12-16T04:54:48.716Z,22.23
2018-12-16T04:57:18.792Z,20.67
2018-12-16T04:59:48.028Z,21.33
2018-12-16T05:02:17.254Z,21.50
2018-12-16T05:04:46.364Z,20.40
2018-12-16T05:07:16.073Z,21.83
2018-12-16T05:09:45.156Z,23.93
2018-12-16T05:12:14.646Z,24.03
2018-12-16T05:14:43.751Z,25.03
2018-12-16T05:17:12.853Z,21.97
2018-12-16T05:19:42.142Z,21.37
2018-12-16T05:22:11.206Z,21.17
2018-12-16T05:24:40.372Z,22.13
2018-12-16T05:27:09.485Z,20.17
2018-12-16T05:29:39.487Z,24.07
2018-12-16T05:32:08.567Z,20.77
2018-12-16T05:34:38.728Z,26.80
2018-12-16T05:37:07.853Z,27.03
2018-12-16T05:39:36.979Z,24.30
2018-12-16T05:42:06.868Z,25.33
2018-12-16T05:44:35.985Z,24.77
2018-12-16T05:47:05.175Z,23.40
2018-12-16T05:49:35.004Z,23.57
2018-12-16T05:52:04.172Z,22.90
2018-12-16T05:54:33.416Z,23.70
2018-12-16T05:57:02.556Z,22.33
2018-12-16T05:59:31.664Z,25.63
2018-12-16T06:02:00.737Z,25.80
2018-12-16T06:04:30.610Z,22.83
2018-12-16T06:06:59.724Z,24.03
2018-12-16T06:09:28.984Z,21.10
2018-12-16T06:11:58.168Z,24.20
2018-12-16T06:14:27.233Z,29.80
2018-12-16T06:16:56.366Z,23.27
2018-12-16T06:19:25.429Z,25.80
2018-12-16T06:21:55.049Z,23.33
2018-12-16T06:24:24.145Z,25.47
2018-12-16T06:26:53.221Z,29.93
2018-12-16T06:29:22.489Z,25.90
2018-12-16T06:31:51.657Z,26.83
2018-12-16T06:34:21.396Z,23.03
2018-12-16T06:36:51.064Z,25.27
2018-12-16T06:39:20.099Z,34.30
2018-12-16T06:41:49.197Z,33.03
2018-12-16T06:44:18.309Z,24.70
2018-12-16T06:46:47.422Z,25.33
2018-12-16T06:49:16.490Z,25.50
2018-12-16T06:51:45.663Z,25.17
2018-12-16T06:54:15.343Z,23.53
2018-12-16T06:56:44.471Z,22.57
2018-12-16T06:59:13.568Z,26.00
2018-12-16T07:01:42.774Z,23.50
2018-12-16T07:04:12.424Z,24.80
2018-12-16T07:06:41.760Z,24.83
2018-12-16T07:09:11.652Z,25.07
2018-12-16T07:13:11.543Z,25.37
2018-12-16T07:15:41.544Z,24.63
2018-12-16T07:18:10.672Z,26.33
2018-12-16T07:20:40.251Z,26.47
2018-12-16T07:23:11.121Z,27.23
2018-12-16T07:25:41.145Z,29.07
2018-12-16T07:28:10.714Z,27.03
2018-12-16T07:30:41.667Z,28.17
2018-12-16T07:33:11.520Z,28.40
2018-12-16T07:35:41.015Z,28.07
2018-12-16T07:38:10.572Z,28.33
2018-12-16T07:40:40.538Z,26.20
2018-12-16T07:43:10.426Z,31.50
2018-12-16T07:45:40.469Z,29.40
2018-12-16T07:48:10.432Z,28.57
2018-12-16T07:50:39.861Z,29.20
2018-12-16T07:53:09.137Z,30.00
2018-12-16T07:55:38.990Z,37.07
2018-12-16T07:58:09.067Z,31.33
2018-12-16T08:00:39.355Z,33.77
2018-12-16T08:03:08.536Z,32.30
2018-12-16T08:05:38.298Z,29.30
2018-12-16T08:08:07.480Z,32.67
2018-12-16T08:10:36.579Z,31.70
2018-12-16T08:13:06.346Z,29.20
2018-12-16T08:15:35.567Z,31.10
2018-12-16T08:18:04.788Z,29.87
2018-12-16T08:20:34.028Z,27.10
2018-12-16T08:23:03.139Z,29.77
2018-12-16T08:25:32.388Z,28.47
2018-12-16T08:28:01.489Z,31.53
2018-12-16T08:30:31.415Z,29.77
2018-12-16T08:33:00.415Z,26.27
2018-12-16T08:35:29.556Z,29.40
2018-12-16T08:37:58.707Z,28.80
2018-12-16T08:40:27.814Z,30.90
2018-12-16T08:42:56.902Z,37.27
2018-12-16T08:45:26.171Z,31.97
2018-12-16T08:47:55.339Z,26.83
2018-12-16T08:50:25.022Z,29.37
2018-12-16T08:52:54.171Z,29.50
2018-12-16T08:55:23.373Z,29.23
2018-12-16T08:57:52.544Z,27.73
2018-12-16T09:00:23.156Z,28.17
2018-12-16T09:02:52.484Z,32.37
2018-12-16T09:05:21.580Z,27.83
2018-12-16T09:07:50.929Z,30.03
2018-12-16T09:10:20.223Z,29.83
2018-12-16T09:12:50.225Z,32.03
2018-12-16T09:15:20.513Z,33.27
2018-12-16T09:17:49.953Z,30.73
2018-12-16T09:20:20.056Z,29.50
2018-12-16T09:22:49.798Z,29.90
2018-12-16T09:25:19.238Z,30.27
2018-12-16T09:27:48.761Z,34.07
2018-12-16T09:30:18.252Z,30.20
2018-12-16T09:32:48.142Z,30.87
2018-12-16T09:35:18.126Z,27.13
2018-12-16T09:37:47.726Z,29.30
2018-12-16T09:40:16.977Z,38.13
2018-12-16T09:42:46.162Z,30.50
2018-12-16T09:45:15.300Z,33.07
2018-12-16T09:47:44.596Z,32.53
2018-12-16T09:50:13.735Z,30.37
2018-12-16T09:52:42.965Z,30.20
2018-12-16T09:55:12.173Z,44.23
2018-12-16T09:57:41.521Z,105.70
2018-12-16T10:00:11.867Z,58.67
2018-12-16T10:02:42.317Z,35.80
2018-12-16T10:05:11.570Z,32.97
2018-12-16T10:07:41.081Z,33.90
2018-12-16T10:10:11.648Z,34.20
2018-12-16T10:12:40.848Z,30.57
2018-12-16T10:15:10.209Z,33.87
2018-12-16T10:17:39.745Z,30.60
2018-12-16T10:20:10.425Z,29.67
2018-12-16T10:22:39.599Z,27.67
2018-12-16T10:25:08.863Z,28.67
2018-12-16T10:27:38.561Z,28.93
2018-12-16T10:30:09.695Z,27.40
2018-12-16T10:32:40.013Z,24.57
2018-12-16T10:35:10.461Z,26.33
2018-12-16T10:37:40.104Z,29.90
2018-12-16T10:40:09.440Z,29.73
2018-12-16T10:42:38.977Z,27.10
2018-12-16T10:45:09.202Z,30.90
2018-12-16T10:47:40.558Z,29.43
2018-12-16T10:50:09.845Z,32.70
2018-12-16T10:52:40.808Z,26.63
2018-12-16T10:55:10.842Z,27.73
2018-12-16T10:57:40.631Z,28.50
2018-12-16T11:00:16.813Z,30.17
2018-12-16T11:02:46.366Z,27.30
2018-12-16T11:05:15.670Z,28.97
2018-12-16T11:07:45.601Z,30.30
2018-12-16T11:10:15.597Z,32.37
2018-12-16T11:12:45.517Z,25.60
2018-12-16T11:15:14.671Z,35.17
2018-12-16T11:17:44.294Z,94.97
2018-12-16T11:20:13.620Z,158.87
2018-12-16T11:22:42.920Z,78.87
2018-12-16T11:25:14.395Z,30.50
2018-12-16T11:27:44.958Z,30.63
2018-12-16T11:30:14.369Z,29.23
2018-12-16T11:32:50.010Z,27.57
2018-12-16T11:35:19.365Z,29.30
2018-12-16T11:37:49.202Z,32.17
2018-12-16T11:40:19.083Z,28.90
2018-12-16T11:42:48.217Z,28.23
2018-12-16T11:45:17.358Z,26.83
2018-12-16T11:47:46.715Z,26.83
2018-12-16T11:50:16.999Z,27.13
2018-12-16T11:52:46.189Z,28.83
2018-12-16T11:55:16.949Z,27.77
2018-12-16T11:57:46.481Z,31.20
2018-12-16T12:00:15.644Z,29.23
2018-12-16T12:02:45.951Z,29.57
2018-12-16T12:05:16.390Z,31.73
2018-12-16T12:07:45.689Z,31.03
2018-12-16T12:10:14.952Z,31.10
2018-12-16T12:12:44.305Z,27.30
2018-12-16T12:15:13.426Z,32.77
2018-12-16T12:17:42.552Z,29.50
2018-12-16T12:20:11.640Z,31.37
2018-12-16T12:22:41.485Z,27.23
2018-12-16T12:25:10.743Z,25.93
2018-12-16T12:27:40.360Z,26.83
2018-12-16T12:30:12.737Z,31.23
2018-12-16T12:32:42.207Z,29.30
2018-12-16T12:35:11.465Z,29.37
2018-12-16T12:37:40.820Z,29.60
2018-12-16T12:40:10.282Z,30.23
2018-12-16T12:42:39.692Z,29.97
2018-12-16T12:45:08.992Z,32.00
2018-12-16T12:47:38.600Z,33.03
2018-12-16T12:50:08.647Z,32.33
2018-12-16T12:52:38.216Z,27.77
2018-12-16T12:55:08.387Z,30.57
2018-12-16T12:57:37.846Z,30.77
2018-12-16T13:00:11.601Z,31.70
2018-12-16T13:02:41.705Z,30.60
2018-12-16T13:05:11.269Z,28.47
2018-12-16T13:07:40.890Z,27.30
2018-12-16T13:10:11.969Z,29.87
2018-12-16T13:12:41.140Z,29.20
2018-12-16T13:15:10.488Z,31.63
2018-12-16T13:17:40.139Z,29.73
2018-12-16T13:20:10.652Z,30.03
2018-12-16T13:22:41.704Z,31.47
2018-12-16T13:25:22.411Z,30.40
2018-12-16T13:27:51.694Z,30.23
2018-12-16T13:30:21.647Z,33.43
2018-12-16T13:32:50.953Z,31.80
2018-12-16T13:35:21.758Z,35.43
2018-12-16T13:37:53.531Z,30.47
2018-12-16T13:40:22.824Z,33.73
2018-12-16T13:42:52.279Z,30.97
2018-12-16T13:45:22.361Z,33.57
2018-12-16T13:47:52.369Z,33.70
2018-12-16T13:50:22.066Z,32.77
2018-12-16T13:52:51.626Z,34.57
2018-12-16T13:55:20.750Z,33.93
2018-12-16T13:57:50.302Z,31.93
2018-12-16T14:00:19.476Z,32.87
2018-12-16T14:02:50.007Z,33.63
2018-12-16T14:05:21.548Z,33.53
2018-12-16T14:07:50.727Z,33.13
2018-12-16T14:10:19.999Z,43.63
2018-12-16T14:12:49.806Z,34.93
2018-12-16T14:15:18.979Z,35.70
2018-12-16T14:17:49.203Z,32.87
2018-12-16T14:20:18.362Z,34.93
2018-12-16T14:22:47.924Z,36.50
2018-12-16T14:25:17.010Z,36.07
2018-12-16T14:27:46.133Z,31.50
2018-12-16T14:30:15.271Z,36.37
2018-12-16T14:32:44.380Z,34.77
2018-12-16T14:35:14.110Z,34.47
2018-12-16T14:37:43.256Z,33.23
2018-12-16T14:40:12.800Z,34.03
2018-12-16T14:42:42.653Z,37.27
2018-12-16T14:45:12.092Z,38.77
2018-12-16T14:47:41.363Z,39.00
2018-12-16T14:50:11.111Z,36.40
2018-12-16T14:52:41.049Z,36.97
2018-12-16T14:55:10.187Z,35.00
2018-12-16T14:57:39.559Z,41.57
2018-12-16T15:00:10.880Z,40.30
2018-12-16T15:02:40.749Z,38.63
2018-12-16T15:05:10.305Z,40.13
2018-12-16T15:07:39.773Z,32.87
2018-12-16T15:10:10.651Z,40.43
2018-12-16T15:12:41.547Z,38.73
2018-12-16T15:15:11.090Z,37.20
2018-12-16T15:17:42.955Z,37.47
2018-12-16T15:20:12.841Z,36.07
2018-12-16T15:22:42.551Z,38.03
2018-12-16T15:25:11.714Z,39.20
2018-12-16T15:27:41.085Z,39.17
2018-12-16T15:30:10.758Z,40.97
2018-12-16T15:32:40.277Z,40.90
2018-12-16T15:35:09.635Z,41.73
2018-12-16T15:37:40.647Z,38.60
2018-12-16T15:40:09.876Z,39.67
2018-12-16T15:42:39.131Z,44.50
2018-12-16T15:45:10.169Z,40.90
2018-12-16T15:47:39.739Z,38.87
2018-12-16T15:50:09.598Z,39.40
2018-12-16T15:52:40.495Z,39.17
2018-12-16T15:55:11.163Z,42.17
2018-12-16T15:57:42.721Z,41.33
2018-12-16T16:00:14.773Z,43.47
2018-12-16T16:02:44.132Z,43.67
2018-12-16T16:05:20.567Z,39.77
2018-12-16T16:07:49.955Z,42.17
2018-12-16T16:10:20.291Z,47.03
2018-12-16T16:12:51.562Z,45.87
2018-12-16T16:15:21.065Z,48.77
2018-12-16T16:17:50.334Z,46.07
2018-12-16T16:20:19.486Z,47.40
2018-12-16T16:22:48.591Z,43.77
2018-12-16T16:25:17.745Z,48.47
2018-12-16T16:27:48.492Z,51.40
2018-12-16T16:30:18.172Z,44.27
2018-12-16T16:32:47.375Z,55.63
2018-12-16T16:35:17.883Z,45.63
2018-12-16T16:37:47.907Z,53.93
2018-12-16T16:40:17.431Z,47.43
2018-12-16T16:42:47.354Z,48.87
2018-12-16T16:45:16.642Z,48.67
2018-12-16T16:47:45.853Z,47.07
2018-12-16T16:50:15.419Z,49.17
2018-12-16T16:52:44.525Z,43.20
2018-12-16T16:55:13.848Z,53.57
2018-12-16T16:57:43.015Z,58.83
2018-12-16T17:00:12.876Z,75.93
2018-12-16T17:02:43.183Z,52.07
2018-12-16T17:05:12.495Z,45.23
2018-12-16T17:07:42.651Z,48.97
2018-12-16T17:10:12.136Z,48.63
2018-12-16T17:12:41.439Z,49.93
2018-12-16T17:15:10.961Z,47.03
2018-12-16T17:17:40.444Z,47.63
2018-12-16T17:20:09.835Z,50.20
2018-12-16T17:22:39.548Z,48.00
2018-12-16T17:25:08.891Z,46.30
2018-12-16T17:27:38.541Z,46.60
2018-12-16T17:30:10.069Z,54.90
2018-12-16T17:32:40.262Z,56.70
2018-12-16T17:35:10.060Z,45.60
2018-12-16T17:37:39.980Z,47.60
2018-12-16T17:40:11.558Z,47.30
2018-12-16T17:42:41.714Z,51.47
2018-12-16T17:45:11.262Z,48.20
2018-12-16T17:47:41.190Z,53.50
2018-12-16T17:50:10.296Z,50.33
2018-12-16T17:52:40.721Z,54.43
2018-12-16T17:55:10.684Z,59.03
2018-12-16T17:57:40.366Z,50.50
2018-12-16T18:00:11.152Z,54.73
2018-12-16T18:02:40.619Z,54.13
2018-12-16T18:05:09.776Z,59.67
2018-12-16T18:07:39.598Z,52.30
2018-12-16T18:10:08.952Z,53.87
2018-12-16T18:12:38.457Z,49.13
2018-12-16T18:15:09.754Z,53.70
2018-12-16T18:17:39.797Z,55.07
2018-12-16T18:20:09.657Z,59.80
2018-12-16T18:22:39.309Z,63.13
2018-12-16T18:25:09.069Z,57.40
2018-12-16T18:27:38.188Z,77.20
2018-12-16T18:30:09.455Z,89.47
2018-12-16T18:32:38.749Z,54.67
2018-12-16T18:35:08.459Z,52.10
2018-12-16T18:37:38.674Z,56.37
2018-12-16T18:40:08.544Z,58.50
2018-12-16T18:42:39.014Z,53.10
2018-12-16T18:45:08.416Z,55.70
2018-12-16T18:47:38.096Z,46.77
2018-12-16T18:50:08.825Z,48.33
2018-12-16T18:52:38.248Z,49.23
2018-12-16T18:55:08.376Z,58.13
2018-12-16T18:57:37.850Z,64.10
2018-12-16T19:00:11.445Z,59.67
2018-12-16T19:02:41.043Z,57.57
2018-12-16T19:05:10.576Z,48.90
2018-12-16T19:07:41.571Z,49.73
2018-12-16T19:10:11.457Z,57.07
2018-12-16T19:12:41.725Z,56.47
2018-12-16T19:15:11.485Z,49.30
2018-12-16T19:17:41.344Z,52.50
2018-12-16T19:20:10.696Z,52.67
2018-12-16T19:22:40.790Z,54.00
2018-12-16T19:25:09.876Z,55.63
2018-12-16T19:27:39.645Z,53.00
2018-12-16T19:30:09.908Z,58.40
2018-12-16T19:32:39.935Z,56.40
2018-12-16T19:35:10.085Z,60.17
2018-12-16T19:37:39.801Z,58.27
2018-12-16T19:40:09.881Z,59.43
2018-12-16T19:42:39.283Z,57.80
2018-12-16T19:45:10.118Z,50.53
2018-12-16T19:47:40.054Z,54.90
2018-12-16T19:50:09.633Z,60.73
2018-12-16T19:52:39.417Z,59.20
2018-12-16T19:55:09.252Z,51.53
2018-12-16T19:57:39.996Z,61.40
2018-12-16T20:00:09.439Z,54.97
2018-12-16T20:02:38.724Z,60.83
2018-12-16T20:05:12.817Z,49.00
2018-12-16T20:07:42.079Z,44.43
2018-12-16T20:10:11.151Z,49.07
2018-12-16T20:12:42.261Z,65.13
2018-12-16T20:15:11.551Z,77.00
2018-12-16T20:17:40.932Z,62.87
2018-12-16T20:20:10.212Z,54.90
2018-12-16T20:22:40.180Z,73.53
2018-12-16T20:25:09.744Z,58.07
2018-12-16T20:27:39.712Z,70.93
2018-12-16T20:30:09.900Z,68.03
2018-12-16T20:32:39.128Z,71.70
2018-12-16T20:35:08.502Z,59.67
2018-12-16T20:37:39.676Z,66.50
2018-12-16T20:40:08.836Z,62.10
2018-12-16T20:42:38.566Z,69.67
2018-12-16T20:45:08.248Z,67.93
2018-12-16T20:47:37.461Z,79.00
2018-12-16T20:50:08.178Z,61.80
2018-12-16T20:52:37.837Z,60.80
2018-12-16T20:55:07.510Z,69.43
2018-12-16T20:57:37.896Z,66.80
2018-12-16T21:00:08.874Z,112.03
2018-12-16T21:02:38.103Z,80.47
2018-12-16T21:05:07.953Z,72.57
2018-12-16T21:07:38.337Z,67.20
2018-12-16T21:10:07.828Z,78.23
2018-12-16T21:12:42.436Z,83.53
2018-12-16T21:15:17.172Z,69.07
2018-12-16T21:17:51.538Z,103.07
2018-12-16T21:20:20.783Z,82.23
2018-12-16T21:22:50.468Z,91.90
2018-12-16T21:25:19.623Z,63.30
2018-12-16T21:27:48.716Z,61.13
2018-12-16T21:30:17.768Z,58.87
2018-12-16T21:32:46.975Z,52.57
2018-12-16T21:35:16.424Z,101.30
2018-12-16T21:37:45.607Z,55.93
2018-12-16T21:40:14.762Z,58.47
2018-12-16T21:42:44.612Z,70.80
2018-12-16T21:45:13.684Z,65.13
2018-12-16T21:47:42.899Z,62.80
2018-12-16T21:50:12.658Z,58.67
2018-12-16T21:52:42.578Z,64.13
2018-12-16T21:55:11.715Z,51.80
2018-12-16T21:57:41.176Z,57.47
2018-12-16T22:00:10.733Z,64.73
2018-12-16T22:02:40.541Z,73.43
2018-12-16T22:05:12.273Z,75.23
2018-12-16T22:07:41.587Z,55.20
2018-12-16T22:10:10.673Z,59.53
2018-12-16T22:12:40.358Z,76.00
2018-12-16T22:15:09.527Z,68.70
2018-12-16T22:17:39.207Z,58.37
2018-12-16T22:20:08.667Z,93.17
2018-12-16T22:22:37.759Z,69.53
2018-12-16T22:25:07.568Z,60.83
2018-12-16T22:27:40.156Z,69.20
2018-12-16T22:30:08.622Z,69.47
2018-12-16T22:32:38.152Z,72.43
2018-12-16T22:35:07.560Z,76.30
2018-12-16T22:37:36.836Z,153.53
2018-12-16T22:40:07.312Z,79.27
2018-12-16T22:42:36.383Z,75.10
2018-12-16T22:45:07.939Z,62.03
2018-12-16T22:47:37.031Z,65.47
2018-12-16T22:50:06.946Z,89.63
2018-12-16T22:52:36.096Z,72.80
2018-12-16T22:55:06.340Z,62.87
2018-12-16T22:57:36.632Z,60.57
2018-12-16T23:00:09.909Z,79.13
2018-12-16T23:02:39.209Z,80.73
2018-12-16T23:05:08.601Z,100.23
2018-12-16T23:07:38.652Z,67.80
2018-12-16T23:10:08.166Z,65.10
2018-12-16T23:12:38.217Z,93.67
2018-12-16T23:15:08.787Z,66.70
2018-12-16T23:17:38.586Z,64.50
2018-12-16T23:20:13.148Z,79.37
2018-12-16T23:22:42.262Z,81.20
2018-12-16T23:25:11.814Z,75.40
2018-12-16T23:27:40.895Z,62.40
2018-12-16T23:30:10.323Z,87.27
2018-12-16T23:32:39.899Z,108.43
2018-12-16T23:35:09.084Z,58.83
2018-12-16T23:37:38.648Z,69.90
2018-12-16T23:40:07.917Z,58.30
2018-12-16T23:42:37.070Z,53.23
2018-12-16T23:45:09.852Z,40.47
2018-12-16T23:47:39.039Z,45.07
2018-12-16T23:50:08.550Z,50.37
2018-12-16T23:52:37.720Z,55.53
2018-12-16T23:55:07.232Z,65.97
2018-12-16T23:57:36.329Z,104.30
